sensor_id;sensor_type;location;lat;lon;timestamp;P1;durP1;ratioP1;P2;durP2;ratioP2
71303;SDS011;59091;47.446;19.148;2023-08-06T00:01:26;10.40;;;7.00;;
71303;SDS011;59091;47.446;19.148;2023-08-06T00:03:51;12.88;;;7.03;;
71303;SDS011;59091;47.446;19.148;2023-08-06T00:06:17;10.27;;;7.50;;
71303;SDS011;59091;47.446;19.148;2023-08-06T00:08:42;8.90;;;6.72;;
71303;SDS011;59091;47.446;19.148;2023-08-06T00:11:08;9.55;;;7.18;;
71303;SDS011;59091;47.446;19.148;2023-08-06T00:13:33;9.07;;;6.32;;
71303;SDS011;59091;47.446;19.148;2023-08-06T00:16:11;10.32;;;6.05;;
71303;SDS011;59091;47.446;19.148;2023-08-06T00:18:38;8.68;;;6.53;;
71303;SDS011;59091;47.446;19.148;2023-08-06T00:21:04;10.95;;;6.45;;
71303;SDS011;59091;47.446;19.148;2023-08-06T00:23:29;8.05;;;6.75;;
71303;SDS011;59091;47.446;19.148;2023-08-06T00:25:55;10.13;;;6.18;;
71303;SDS011;59091;47.446;19.148;2023-08-06T00:28:20;9.32;;;6.57;;
71303;SDS011;59091;47.446;19.148;2023-08-06T00:30:45;13.40;;;7.18;;
71303;SDS011;59091;47.446;19.148;2023-08-06T00:33:11;10.52;;;6.60;;
71303;SDS011;59091;47.446;19.148;2023-08-06T00:35:36;12.00;;;8.43;;
71303;SDS011;59091;47.446;19.148;2023-08-06T00:38:02;12.35;;;7.72;;
71303;SDS011;59091;47.446;19.148;2023-08-06T00:40:27;11.95;;;7.95;;
71303;SDS011;59091;47.446;19.148;2023-08-06T00:42:55;9.73;;;6.78;;
71303;SDS011;59091;47.446;19.148;2023-08-06T00:45:21;9.93;;;7.10;;
71303;SDS011;59091;47.446;19.148;2023-08-06T00:47:47;11.23;;;7.03;;
71303;SDS011;59091;47.446;19.148;2023-08-06T00:50:12;8.45;;;7.20;;
71303;SDS011;59091;47.446;19.148;2023-08-06T00:52:38;8.40;;;6.45;;
71303;SDS011;59091;47.446;19.148;2023-08-06T00:55:04;10.23;;;6.93;;
71303;SDS011;59091;47.446;19.148;2023-08-06T00:57:31;10.48;;;6.50;;
71303;SDS011;59091;47.446;19.148;2023-08-06T00:59:57;9.40;;;7.05;;
71303;SDS011;59091;47.446;19.148;2023-08-06T01:02:23;8.73;;;7.32;;
71303;SDS011;59091;47.446;19.148;2023-08-06T01:04:48;7.50;;;6.15;;
71303;SDS011;59091;47.446;19.148;2023-08-06T01:15:22;10.43;;;7.22;;
71303;SDS011;59091;47.446;19.148;2023-08-06T01:17:52;11.77;;;7.78;;
71303;SDS011;59091;47.446;19.148;2023-08-06T01:20:18;6.88;;;5.38;;
71303;SDS011;59091;47.446;19.148;2023-08-06T01:22:44;7.32;;;5.72;;
71303;SDS011;59091;47.446;19.148;2023-08-06T01:25:09;7.38;;;5.82;;
71303;SDS011;59091;47.446;19.148;2023-08-06T01:27:45;7.07;;;5.55;;
71303;SDS011;59091;47.446;19.148;2023-08-06T01:30:15;8.35;;;5.97;;
71303;SDS011;59091;47.446;19.148;2023-08-06T01:32:43;7.65;;;6.00;;
71303;SDS011;59091;47.446;19.148;2023-08-06T01:35:12;6.38;;;5.30;;
71303;SDS011;59091;47.446;19.148;2023-08-06T01:37:40;6.45;;;5.40;;
71303;SDS011;59091;47.446;19.148;2023-08-06T01:40:09;5.22;;;4.63;;
71303;SDS011;59091;47.446;19.148;2023-08-06T01:42:36;7.05;;;4.72;;
71303;SDS011;59091;47.446;19.148;2023-08-06T01:45:02;6.40;;;4.72;;
71303;SDS011;59091;47.446;19.148;2023-08-06T01:47:28;7.95;;;6.28;;
71303;SDS011;59091;47.446;19.148;2023-08-06T01:49:53;7.35;;;5.85;;
71303;SDS011;59091;47.446;19.148;2023-08-06T01:52:19;9.32;;;5.93;;
71303;SDS011;59091;47.446;19.148;2023-08-06T01:54:44;9.05;;;6.35;;
71303;SDS011;59091;47.446;19.148;2023-08-06T01:57:09;8.05;;;6.57;;
71303;SDS011;59091;47.446;19.148;2023-08-06T01:59:35;10.00;;;6.65;;
71303;SDS011;59091;47.446;19.148;2023-08-06T02:02:00;9.85;;;6.97;;
71303;SDS011;59091;47.446;19.148;2023-08-06T02:04:26;14.05;;;7.60;;
71303;SDS011;59091;47.446;19.148;2023-08-06T02:06:51;7.13;;;6.00;;
71303;SDS011;59091;47.446;19.148;2023-08-06T02:09:16;7.47;;;6.22;;
71303;SDS011;59091;47.446;19.148;2023-08-06T02:11:42;6.60;;;5.38;;
71303;SDS011;59091;47.446;19.148;2023-08-06T02:14:07;9.45;;;6.78;;
71303;SDS011;59091;47.446;19.148;2023-08-06T02:16:33;6.53;;;5.38;;
71303;SDS011;59091;47.446;19.148;2023-08-06T02:18:58;7.43;;;5.68;;
71303;SDS011;59091;47.446;19.148;2023-08-06T02:21:24;11.15;;;7.05;;
71303;SDS011;59091;47.446;19.148;2023-08-06T02:23:49;8.52;;;6.90;;
71303;SDS011;59091;47.446;19.148;2023-08-06T02:26:14;8.45;;;6.13;;
71303;SDS011;59091;47.446;19.148;2023-08-06T02:28:40;9.13;;;5.65;;
71303;SDS011;59091;47.446;19.148;2023-08-06T02:31:05;6.55;;;5.63;;
71303;SDS011;59091;47.446;19.148;2023-08-06T02:33:31;6.97;;;5.78;;
71303;SDS011;59091;47.446;19.148;2023-08-06T02:36:03;6.97;;;5.20;;
71303;SDS011;59091;47.446;19.148;2023-08-06T02:38:29;7.15;;;5.75;;
71303;SDS011;59091;47.446;19.148;2023-08-06T02:40:55;4.70;;;4.30;;
71303;SDS011;59091;47.446;19.148;2023-08-06T02:43:21;4.85;;;4.18;;
71303;SDS011;59091;47.446;19.148;2023-08-06T02:45:47;4.63;;;4.22;;
71303;SDS011;59091;47.446;19.148;2023-08-06T02:48:12;8.85;;;4.55;;
71303;SDS011;59091;47.446;19.148;2023-08-06T02:50:38;5.35;;;4.85;;
71303;SDS011;59091;47.446;19.148;2023-08-06T02:53:05;5.45;;;4.95;;
71303;SDS011;59091;47.446;19.148;2023-08-06T02:55:31;7.10;;;5.03;;
71303;SDS011;59091;47.446;19.148;2023-08-06T02:57:57;5.03;;;4.53;;
71303;SDS011;59091;47.446;19.148;2023-08-06T03:00:22;6.75;;;4.95;;
71303;SDS011;59091;47.446;19.148;2023-08-06T03:02:48;6.93;;;4.88;;
71303;SDS011;59091;47.446;19.148;2023-08-06T03:05:13;5.25;;;4.43;;
71303;SDS011;59091;47.446;19.148;2023-08-06T03:07:39;5.20;;;4.57;;
71303;SDS011;59091;47.446;19.148;2023-08-06T03:10:04;4.47;;;4.07;;
71303;SDS011;59091;47.446;19.148;2023-08-06T03:12:30;7.25;;;4.97;;
71303;SDS011;59091;47.446;19.148;2023-08-06T03:14:55;10.07;;;6.15;;
71303;SDS011;59091;47.446;19.148;2023-08-06T03:17:21;7.47;;;5.53;;
71303;SDS011;59091;47.446;19.148;2023-08-06T03:19:46;6.57;;;5.50;;
71303;SDS011;59091;47.446;19.148;2023-08-06T03:22:12;9.27;;;5.55;;
71303;SDS011;59091;47.446;19.148;2023-08-06T03:24:37;6.35;;;5.53;;
71303;SDS011;59091;47.446;19.148;2023-08-06T03:27:02;7.32;;;4.90;;
71303;SDS011;59091;47.446;19.148;2023-08-06T03:29:28;7.03;;;5.43;;
71303;SDS011;59091;47.446;19.148;2023-08-06T03:31:53;6.93;;;5.07;;
71303;SDS011;59091;47.446;19.148;2023-08-06T03:34:19;5.18;;;4.40;;
71303;SDS011;59091;47.446;19.148;2023-08-06T03:36:44;5.63;;;4.10;;
71303;SDS011;59091;47.446;19.148;2023-08-06T03:39:10;5.63;;;4.43;;
71303;SDS011;59091;47.446;19.148;2023-08-06T03:41:35;7.60;;;4.43;;
71303;SDS011;59091;47.446;19.148;2023-08-06T03:44:01;5.85;;;4.10;;
71303;SDS011;59091;47.446;19.148;2023-08-06T03:46:28;4.93;;;4.00;;
71303;SDS011;59091;47.446;19.148;2023-08-06T03:48:54;5.53;;;4.35;;
71303;SDS011;59091;47.446;19.148;2023-08-06T03:51:19;6.32;;;4.53;;
71303;SDS011;59091;47.446;19.148;2023-08-06T03:53:45;5.43;;;4.22;;
71303;SDS011;59091;47.446;19.148;2023-08-06T03:56:10;5.72;;;4.10;;
71303;SDS011;59091;47.446;19.148;2023-08-06T03:58:36;4.38;;;3.95;;
71303;SDS011;59091;47.446;19.148;2023-08-06T04:01:01;4.93;;;4.18;;
71303;SDS011;59091;47.446;19.148;2023-08-06T04:03:28;6.03;;;4.50;;
71303;SDS011;59091;47.446;19.148;2023-08-06T04:05:54;5.40;;;4.10;;
71303;SDS011;59091;47.446;19.148;2023-08-06T04:08:19;5.53;;;4.50;;
71303;SDS011;59091;47.446;19.148;2023-08-06T04:10:44;7.40;;;4.40;;
71303;SDS011;59091;47.446;19.148;2023-08-06T04:13:10;6.50;;;4.07;;
71303;SDS011;59091;47.446;19.148;2023-08-06T04:15:35;5.55;;;3.70;;
71303;SDS011;59091;47.446;19.148;2023-08-06T04:18:01;5.07;;;3.83;;
71303;SDS011;59091;47.446;19.148;2023-08-06T04:20:26;5.32;;;3.75;;
71303;SDS011;59091;47.446;19.148;2023-08-06T04:22:54;3.90;;;3.10;;
71303;SDS011;59091;47.446;19.148;2023-08-06T04:25:20;6.50;;;3.40;;
71303;SDS011;59091;47.446;19.148;2023-08-06T04:27:49;4.72;;;3.47;;
71303;SDS011;59091;47.446;19.148;2023-08-06T04:30:15;5.47;;;4.15;;
71303;SDS011;59091;47.446;19.148;2023-08-06T04:32:40;6.60;;;4.57;;
71303;SDS011;59091;47.446;19.148;2023-08-06T04:35:06;7.18;;;4.53;;
71303;SDS011;59091;47.446;19.148;2023-08-06T04:37:31;4.22;;;3.83;;
71303;SDS011;59091;47.446;19.148;2023-08-06T04:39:57;8.38;;;4.20;;
71303;SDS011;59091;47.446;19.148;2023-08-06T04:42:22;8.82;;;3.97;;
71303;SDS011;59091;47.446;19.148;2023-08-06T04:44:48;5.20;;;4.70;;
71303;SDS011;59091;47.446;19.148;2023-08-06T04:47:13;6.55;;;4.38;;
71303;SDS011;59091;47.446;19.148;2023-08-06T04:49:39;4.65;;;4.13;;
71303;SDS011;59091;47.446;19.148;2023-08-06T04:52:04;4.05;;;3.42;;
71303;SDS011;59091;47.446;19.148;2023-08-06T04:54:31;5.53;;;3.70;;
71303;SDS011;59091;47.446;19.148;2023-08-06T04:56:56;3.28;;;2.97;;
71303;SDS011;59091;47.446;19.148;2023-08-06T04:59:22;7.07;;;3.63;;
71303;SDS011;59091;47.446;19.148;2023-08-06T05:01:47;4.05;;;3.65;;
71303;SDS011;59091;47.446;19.148;2023-08-06T05:04:12;3.58;;;2.75;;
71303;SDS011;59091;47.446;19.148;2023-08-06T05:06:38;3.10;;;2.85;;
71303;SDS011;59091;47.446;19.148;2023-08-06T05:09:03;3.03;;;2.42;;
71303;SDS011;59091;47.446;19.148;2023-08-06T05:11:30;3.55;;;2.22;;
71303;SDS011;59091;47.446;19.148;2023-08-06T05:13:55;2.25;;;2.05;;
71303;SDS011;59091;47.446;19.148;2023-08-06T05:16:20;2.15;;;1.85;;
71303;SDS011;59091;47.446;19.148;2023-08-06T05:18:46;1.75;;;1.60;;
71303;SDS011;59091;47.446;19.148;2023-08-06T05:21:11;1.63;;;1.45;;
71303;SDS011;59091;47.446;19.148;2023-08-06T05:23:37;4.03;;;1.70;;
71303;SDS011;59091;47.446;19.148;2023-08-06T05:26:02;1.75;;;1.65;;
71303;SDS011;59091;47.446;19.148;2023-08-06T05:28:28;2.35;;;1.60;;
71303;SDS011;59091;47.446;19.148;2023-08-06T05:30:53;1.50;;;1.40;;
71303;SDS011;59091;47.446;19.148;2023-08-06T05:33:18;4.78;;;1.67;;
71303;SDS011;59091;47.446;19.148;2023-08-06T05:35:44;1.50;;;1.40;;
71303;SDS011;59091;47.446;19.148;2023-08-06T05:38:09;2.25;;;1.33;;
71303;SDS011;59091;47.446;19.148;2023-08-06T05:40:35;0.98;;;0.98;;
71303;SDS011;59091;47.446;19.148;2023-08-06T05:43:01;0.85;;;0.70;;
71303;SDS011;59091;47.446;19.148;2023-08-06T05:45:26;1.55;;;0.63;;
71303;SDS011;59091;47.446;19.148;2023-08-06T05:47:51;1.70;;;0.88;;
71303;SDS011;59091;47.446;19.148;2023-08-06T05:50:19;1.95;;;0.70;;
71303;SDS011;59091;47.446;19.148;2023-08-06T05:52:44;1.02;;;0.70;;
71303;SDS011;59091;47.446;19.148;2023-08-06T05:55:10;0.85;;;0.85;;
71303;SDS011;59091;47.446;19.148;2023-08-06T05:57:35;0.75;;;0.70;;
71303;SDS011;59091;47.446;19.148;2023-08-06T06:00:01;1.02;;;0.60;;
71303;SDS011;59091;47.446;19.148;2023-08-06T06:02:31;1.50;;;0.70;;
71303;SDS011;59091;47.446;19.148;2023-08-06T06:04:56;0.80;;;0.40;;
71303;SDS011;59091;47.446;19.148;2023-08-06T06:07:21;0.95;;;0.40;;
71303;SDS011;59091;47.446;19.148;2023-08-06T06:09:47;0.85;;;0.60;;
71303;SDS011;59091;47.446;19.148;2023-08-06T06:12:12;0.40;;;0.40;;
71303;SDS011;59091;47.446;19.148;2023-08-06T06:14:38;0.40;;;0.40;;
71303;SDS011;59091;47.446;19.148;2023-08-06T06:17:03;2.90;;;0.50;;
71303;SDS011;59091;47.446;19.148;2023-08-06T06:19:29;1.27;;;0.40;;
71303;SDS011;59091;47.446;19.148;2023-08-06T06:21:54;0.40;;;0.40;;
71303;SDS011;59091;47.446;19.148;2023-08-06T06:24:22;3.30;;;0.82;;
71303;SDS011;59091;47.446;19.148;2023-08-06T06:26:48;1.85;;;0.40;;
71303;SDS011;59091;47.446;19.148;2023-08-06T06:29:13;0.40;;;0.40;;
71303;SDS011;59091;47.446;19.148;2023-08-06T06:31:38;1.20;;;0.43;;
71303;SDS011;59091;47.446;19.148;2023-08-06T06:34:04;1.40;;;0.50;;
71303;SDS011;59091;47.446;19.148;2023-08-06T06:36:29;6.00;;;1.58;;
71303;SDS011;59091;47.446;19.148;2023-08-06T06:38:55;0.38;;;0.38;;
71303;SDS011;59091;47.446;19.148;2023-08-06T06:41:20;0.30;;;0.30;;
71303;SDS011;59091;47.446;19.148;2023-08-06T06:43:46;0.40;;;0.40;;
71303;SDS011;59091;47.446;19.148;2023-08-06T06:46:11;2.40;;;0.60;;
71303;SDS011;59091;47.446;19.148;2023-08-06T06:48:37;0.40;;;0.40;;
71303;SDS011;59091;47.446;19.148;2023-08-06T06:51:02;1.10;;;0.60;;
71303;SDS011;59091;47.446;19.148;2023-08-06T06:53:28;0.50;;;0.50;;
71303;SDS011;59091;47.446;19.148;2023-08-06T06:55:54;4.65;;;0.60;;
71303;SDS011;59091;47.446;19.148;2023-08-06T06:58:29;2.63;;;0.60;;
71303;SDS011;59091;47.446;19.148;2023-08-06T07:00:55;5.82;;;0.70;;
71303;SDS011;59091;47.446;19.148;2023-08-06T07:03:21;0.47;;;0.47;;
71303;SDS011;59091;47.446;19.148;2023-08-06T07:05:46;0.52;;;0.50;;
71303;SDS011;59091;47.446;19.148;2023-08-06T07:08:12;0.85;;;0.40;;
71303;SDS011;59091;47.446;19.148;2023-08-06T07:10:37;0.50;;;0.50;;
71303;SDS011;59091;47.446;19.148;2023-08-06T07:13:06;0.50;;;0.50;;
71303;SDS011;59091;47.446;19.148;2023-08-06T07:15:31;1.02;;;0.60;;
71303;SDS011;59091;47.446;19.148;2023-08-06T07:17:57;2.00;;;0.40;;
71303;SDS011;59091;47.446;19.148;2023-08-06T07:20:22;15.88;;;0.90;;
71303;SDS011;59091;47.446;19.148;2023-08-06T07:22:48;1.48;;;0.57;;
71303;SDS011;59091;47.446;19.148;2023-08-06T07:25:15;4.55;;;0.40;;
71303;SDS011;59091;47.446;19.148;2023-08-06T07:27:41;3.28;;;0.70;;
71303;SDS011;59091;47.446;19.148;2023-08-06T07:30:06;1.83;;;0.40;;
71303;SDS011;59091;47.446;19.148;2023-08-06T07:32:32;0.65;;;0.50;;
71303;SDS011;59091;47.446;19.148;2023-08-06T07:34:57;2.45;;;0.50;;
71303;SDS011;59091;47.446;19.148;2023-08-06T07:37:25;0.60;;;0.60;;
71303;SDS011;59091;47.446;19.148;2023-08-06T07:39:54;4.40;;;2.50;;
71303;SDS011;59091;47.446;19.148;2023-08-06T07:42:20;2.13;;;0.80;;
71303;SDS011;59091;47.446;19.148;2023-08-06T07:44:53;0.60;;;0.60;;
71303;SDS011;59091;47.446;19.148;2023-08-06T07:47:19;0.50;;;0.50;;
71303;SDS011;59091;47.446;19.148;2023-08-06T07:49:45;1.55;;;0.45;;
71303;SDS011;59091;47.446;19.148;2023-08-06T07:52:10;1.65;;;0.40;;
71303;SDS011;59091;47.446;19.148;2023-08-06T07:54:36;0.40;;;0.40;;
71303;SDS011;59091;47.446;19.148;2023-08-06T07:57:01;0.40;;;0.40;;
71303;SDS011;59091;47.446;19.148;2023-08-06T07:59:27;0.40;;;0.40;;
71303;SDS011;59091;47.446;19.148;2023-08-06T08:01:52;0.35;;;0.35;;
71303;SDS011;59091;47.446;19.148;2023-08-06T08:04:18;0.40;;;0.40;;
71303;SDS011;59091;47.446;19.148;2023-08-06T08:06:43;1.48;;;0.43;;
71303;SDS011;59091;47.446;19.148;2023-08-06T08:09:09;0.40;;;0.40;;
71303;SDS011;59091;47.446;19.148;2023-08-06T08:11:34;0.43;;;0.30;;
71303;SDS011;59091;47.446;19.148;2023-08-06T08:14:00;0.50;;;0.50;;
71303;SDS011;59091;47.446;19.148;2023-08-06T08:16:25;4.72;;;0.65;;
71303;SDS011;59091;47.446;19.148;2023-08-06T08:18:50;7.95;;;0.70;;
71303;SDS011;59091;47.446;19.148;2023-08-06T08:21:16;6.63;;;0.60;;
71303;SDS011;59091;47.446;19.148;2023-08-06T08:23:41;1.90;;;0.50;;
71303;SDS011;59091;47.446;19.148;2023-08-06T08:26:08;4.70;;;0.52;;
71303;SDS011;59091;47.446;19.148;2023-08-06T08:28:34;3.03;;;0.50;;
71303;SDS011;59091;47.446;19.148;2023-08-06T08:30:59;3.17;;;0.60;;
71303;SDS011;59091;47.446;19.148;2023-08-06T08:33:25;4.97;;;0.50;;
71303;SDS011;59091;47.446;19.148;2023-08-06T08:35:50;2.13;;;0.43;;
71303;SDS011;59091;47.446;19.148;2023-08-06T08:38:16;1.83;;;0.50;;
71303;SDS011;59091;47.446;19.148;2023-08-06T08:40:45;1.75;;;0.57;;
71303;SDS011;59091;47.446;19.148;2023-08-06T08:43:14;0.30;;;0.30;;
71303;SDS011;59091;47.446;19.148;2023-08-06T08:45:40;0.95;;;0.57;;
71303;SDS011;59091;47.446;19.148;2023-08-06T08:48:08;1.75;;;0.38;;
71303;SDS011;59091;47.446;19.148;2023-08-06T08:50:36;0.30;;;0.30;;
71303;SDS011;59091;47.446;19.148;2023-08-06T08:53:01;0.85;;;0.30;;
71303;SDS011;59091;47.446;19.148;2023-08-06T08:55:28;1.23;;;0.40;;
71303;SDS011;59091;47.446;19.148;2023-08-06T08:57:53;3.40;;;0.38;;
71303;SDS011;59091;47.446;19.148;2023-08-06T09:00:19;0.35;;;0.35;;
71303;SDS011;59091;47.446;19.148;2023-08-06T09:02:44;0.30;;;0.30;;
71303;SDS011;59091;47.446;19.148;2023-08-06T09:05:11;0.30;;;0.30;;
71303;SDS011;59091;47.446;19.148;2023-08-06T09:07:41;2.05;;;0.30;;
71303;SDS011;59091;47.446;19.148;2023-08-06T09:10:10;0.40;;;0.40;;
71303;SDS011;59091;47.446;19.148;2023-08-06T09:12:36;2.20;;;0.40;;
71303;SDS011;59091;47.446;19.148;2023-08-06T09:15:01;0.30;;;0.30;;
71303;SDS011;59091;47.446;19.148;2023-08-06T09:17:28;0.98;;;0.40;;
71303;SDS011;59091;47.446;19.148;2023-08-06T09:19:54;0.40;;;0.40;;
71303;SDS011;59091;47.446;19.148;2023-08-06T09:22:19;0.30;;;0.30;;
71303;SDS011;59091;47.446;19.148;2023-08-06T09:24:45;0.30;;;0.30;;
71303;SDS011;59091;47.446;19.148;2023-08-06T09:27:11;1.13;;;0.55;;
71303;SDS011;59091;47.446;19.148;2023-08-06T09:29:44;0.30;;;0.30;;
71303;SDS011;59091;47.446;19.148;2023-08-06T09:32:11;0.40;;;0.40;;
71303;SDS011;59091;47.446;19.148;2023-08-06T09:34:41;0.45;;;0.45;;
71303;SDS011;59091;47.446;19.148;2023-08-06T09:37:10;0.40;;;0.40;;
71303;SDS011;59091;47.446;19.148;2023-08-06T09:39:36;1.55;;;0.40;;
71303;SDS011;59091;47.446;19.148;2023-08-06T09:42:03;0.50;;;0.50;;
71303;SDS011;59091;47.446;19.148;2023-08-06T09:44:30;0.50;;;0.50;;
71303;SDS011;59091;47.446;19.148;2023-08-06T09:46:58;1.15;;;0.85;;
71303;SDS011;59091;47.446;19.148;2023-08-06T09:52:01;3.03;;;0.40;;
71303;SDS011;59091;47.446;19.148;2023-08-06T09:54:27;0.50;;;0.50;;
71303;SDS011;59091;47.446;19.148;2023-08-06T09:56:55;0.47;;;0.47;;
71303;SDS011;59091;47.446;19.148;2023-08-06T09:59:21;0.50;;;0.50;;
71303;SDS011;59091;47.446;19.148;2023-08-06T10:01:48;0.50;;;0.50;;
71303;SDS011;59091;47.446;19.148;2023-08-06T10:04:14;0.52;;;0.50;;
71303;SDS011;59091;47.446;19.148;2023-08-06T10:06:46;0.40;;;0.40;;
71303;SDS011;59091;47.446;19.148;2023-08-06T10:09:15;5.05;;;0.50;;
71303;SDS011;59091;47.446;19.148;2023-08-06T10:11:42;0.50;;;0.45;;
71303;SDS011;59091;47.446;19.148;2023-08-06T10:14:30;1.15;;;0.50;;
71303;SDS011;59091;47.446;19.148;2023-08-06T10:16:57;0.70;;;0.70;;
71303;SDS011;59091;47.446;19.148;2023-08-06T10:19:24;0.40;;;0.40;;
71303;SDS011;59091;47.446;19.148;2023-08-06T10:22:12;0.70;;;0.70;;
71303;SDS011;59091;47.446;19.148;2023-08-06T10:24:49;0.95;;;0.60;;
71303;SDS011;59091;47.446;19.148;2023-08-06T10:27:34;1.17;;;0.50;;
71303;SDS011;59091;47.446;19.148;2023-08-06T10:32:57;0.40;;;0.40;;
71303;SDS011;59091;47.446;19.148;2023-08-06T10:35:31;0.80;;;0.63;;
71303;SDS011;59091;47.446;19.148;2023-08-06T10:40:41;0.50;;;0.50;;
71303;SDS011;59091;47.446;19.148;2023-08-06T10:43:28;0.60;;;0.60;;
71303;SDS011;59091;47.446;19.148;2023-08-06T10:45:55;0.70;;;0.60;;
71303;SDS011;59091;47.446;19.148;2023-08-06T10:50:59;0.40;;;0.40;;
71303;SDS011;59091;47.446;19.148;2023-08-06T10:53:25;0.40;;;0.40;;
71303;SDS011;59091;47.446;19.148;2023-08-06T10:55:50;0.50;;;0.50;;
71303;SDS011;59091;47.446;19.148;2023-08-06T10:58:16;0.52;;;0.52;;
71303;SDS011;59091;47.446;19.148;2023-08-06T11:00:41;0.50;;;0.50;;
71303;SDS011;59091;47.446;19.148;2023-08-06T11:03:07;0.50;;;0.50;;
71303;SDS011;59091;47.446;19.148;2023-08-06T11:05:34;0.47;;;0.47;;
71303;SDS011;59091;47.446;19.148;2023-08-06T11:08:00;0.55;;;0.40;;
71303;SDS011;59091;47.446;19.148;2023-08-06T11:10:26;0.57;;;0.57;;
71303;SDS011;59091;47.446;19.148;2023-08-06T11:12:51;2.67;;;0.60;;
71303;SDS011;59091;47.446;19.148;2023-08-06T11:15:17;0.77;;;0.60;;
71303;SDS011;59091;47.446;19.148;2023-08-06T11:17:42;0.52;;;0.47;;
71303;SDS011;59091;47.446;19.148;2023-08-06T11:20:08;1.52;;;0.57;;
71303;SDS011;59091;47.446;19.148;2023-08-06T11:22:35;0.45;;;0.45;;
71303;SDS011;59091;47.446;19.148;2023-08-06T11:25:01;1.23;;;0.70;;
71303;SDS011;59091;47.446;19.148;2023-08-06T11:27:27;0.60;;;0.60;;
71303;SDS011;59091;47.446;19.148;2023-08-06T11:29:54;0.60;;;0.60;;
71303;SDS011;59091;47.446;19.148;2023-08-06T11:32:19;0.60;;;0.60;;
71303;SDS011;59091;47.446;19.148;2023-08-06T11:34:45;0.63;;;0.63;;
71303;SDS011;59091;47.446;19.148;2023-08-06T11:37:10;2.72;;;0.80;;
71303;SDS011;59091;47.446;19.148;2023-08-06T11:39:36;0.60;;;0.60;;
71303;SDS011;59091;47.446;19.148;2023-08-06T11:42:03;0.50;;;0.50;;
71303;SDS011;59091;47.446;19.148;2023-08-06T11:44:30;0.63;;;0.63;;
71303;SDS011;59091;47.446;19.148;2023-08-06T11:46:58;2.08;;;0.50;;
71303;SDS011;59091;47.446;19.148;2023-08-06T11:55:00;1.80;;;0.70;;
71303;SDS011;59091;47.446;19.148;2023-08-06T11:57:26;0.80;;;0.80;;
71303;SDS011;59091;47.446;19.148;2023-08-06T11:59:53;0.80;;;0.80;;
71303;SDS011;59091;47.446;19.148;2023-08-06T12:02:20;4.68;;;1.15;;
71303;SDS011;59091;47.446;19.148;2023-08-06T12:04:58;0.80;;;0.80;;
71303;SDS011;59091;47.446;19.148;2023-08-06T12:07:31;0.95;;;0.70;;
71303;SDS011;59091;47.446;19.148;2023-08-06T12:09:58;0.60;;;0.60;;
71303;SDS011;59091;47.446;19.148;2023-08-06T12:12:24;2.30;;;0.90;;
71303;SDS011;59091;47.446;19.148;2023-08-06T12:14:50;2.53;;;0.73;;
71303;SDS011;59091;47.446;19.148;2023-08-06T12:17:15;1.00;;;0.70;;
71303;SDS011;59091;47.446;19.148;2023-08-06T12:19:41;0.88;;;0.88;;
71303;SDS011;59091;47.446;19.148;2023-08-06T12:22:06;0.60;;;0.60;;
71303;SDS011;59091;47.446;19.148;2023-08-06T12:24:32;0.60;;;0.60;;
71303;SDS011;59091;47.446;19.148;2023-08-06T12:26:57;0.60;;;0.60;;
71303;SDS011;59091;47.446;19.148;2023-08-06T12:29:25;2.10;;;0.60;;
71303;SDS011;59091;47.446;19.148;2023-08-06T12:31:51;0.73;;;0.55;;
71303;SDS011;59091;47.446;19.148;2023-08-06T12:34:16;0.60;;;0.60;;
71303;SDS011;59091;47.446;19.148;2023-08-06T12:36:41;1.15;;;0.63;;
71303;SDS011;59091;47.446;19.148;2023-08-06T12:39:07;0.60;;;0.60;;
71303;SDS011;59091;47.446;19.148;2023-08-06T12:41:33;2.78;;;0.82;;
71303;SDS011;59091;47.446;19.148;2023-08-06T12:43:58;0.70;;;0.70;;
71303;SDS011;59091;47.446;19.148;2023-08-06T12:46:23;2.25;;;0.80;;
71303;SDS011;59091;47.446;19.148;2023-08-06T12:48:49;0.70;;;0.70;;
71303;SDS011;59091;47.446;19.148;2023-08-06T12:51:14;1.40;;;1.30;;
71303;SDS011;59091;47.446;19.148;2023-08-06T12:53:40;0.77;;;0.77;;
71303;SDS011;59091;47.446;19.148;2023-08-06T12:56:05;0.80;;;0.80;;
71303;SDS011;59091;47.446;19.148;2023-08-06T12:58:31;1.05;;;0.80;;
71303;SDS011;59091;47.446;19.148;2023-08-06T13:00:56;0.77;;;0.77;;
71303;SDS011;59091;47.446;19.148;2023-08-06T13:03:21;2.25;;;0.75;;
71303;SDS011;59091;47.446;19.148;2023-08-06T13:05:47;4.57;;;0.88;;
71303;SDS011;59091;47.446;19.148;2023-08-06T13:08:12;0.70;;;0.70;;
71303;SDS011;59091;47.446;19.148;2023-08-06T13:10:38;0.65;;;0.65;;
71303;SDS011;59091;47.446;19.148;2023-08-06T13:13:03;0.80;;;0.80;;
71303;SDS011;59091;47.446;19.148;2023-08-06T13:15:29;0.80;;;0.80;;
71303;SDS011;59091;47.446;19.148;2023-08-06T13:17:54;1.00;;;1.00;;
71303;SDS011;59091;47.446;19.148;2023-08-06T13:20:20;1.00;;;1.00;;
71303;SDS011;59091;47.446;19.148;2023-08-06T13:22:45;0.80;;;0.80;;
71303;SDS011;59091;47.446;19.148;2023-08-06T13:25:11;3.20;;;1.00;;
71303;SDS011;59091;47.446;19.148;2023-08-06T13:27:39;0.70;;;0.70;;
71303;SDS011;59091;47.446;19.148;2023-08-06T13:30:05;1.23;;;1.13;;
71303;SDS011;59091;47.446;19.148;2023-08-06T13:32:31;1.73;;;1.17;;
71303;SDS011;59091;47.446;19.148;2023-08-06T13:34:58;3.22;;;2.92;;
71303;SDS011;59091;47.446;19.148;2023-08-06T13:37:24;3.33;;;1.00;;
71303;SDS011;59091;47.446;19.148;2023-08-06T13:39:50;0.90;;;0.90;;
71303;SDS011;59091;47.446;19.148;2023-08-06T13:42:15;1.23;;;1.10;;
71303;SDS011;59091;47.446;19.148;2023-08-06T13:44:40;2.35;;;1.17;;
71303;SDS011;59091;47.446;19.148;2023-08-06T13:47:06;1.40;;;1.30;;
71303;SDS011;59091;47.446;19.148;2023-08-06T13:49:31;5.47;;;1.20;;
71303;SDS011;59091;47.446;19.148;2023-08-06T13:51:57;1.00;;;1.00;;
71303;SDS011;59091;47.446;19.148;2023-08-06T13:54:22;1.15;;;1.10;;
71303;SDS011;59091;47.446;19.148;2023-08-06T13:56:48;2.75;;;1.45;;
71303;SDS011;59091;47.446;19.148;2023-08-06T13:59:14;1.27;;;1.10;;
71303;SDS011;59091;47.446;19.148;2023-08-06T14:01:41;1.52;;;1.40;;
71303;SDS011;59091;47.446;19.148;2023-08-06T14:04:07;1.67;;;1.30;;
71303;SDS011;59091;47.446;19.148;2023-08-06T14:06:32;1.77;;;1.50;;
71303;SDS011;59091;47.446;19.148;2023-08-06T14:08:58;5.75;;;1.30;;
71303;SDS011;59091;47.446;19.148;2023-08-06T14:11:23;1.38;;;1.38;;
71303;SDS011;59091;47.446;19.148;2023-08-06T14:13:48;1.40;;;1.40;;
71303;SDS011;59091;47.446;19.148;2023-08-06T14:16:14;1.90;;;1.20;;
71303;SDS011;59091;47.446;19.148;2023-08-06T14:18:39;1.40;;;1.40;;
71303;SDS011;59091;47.446;19.148;2023-08-06T14:21:06;1.42;;;1.35;;
71303;SDS011;59091;47.446;19.148;2023-08-06T14:23:31;1.40;;;1.40;;
71303;SDS011;59091;47.446;19.148;2023-08-06T14:25:57;3.53;;;1.40;;
71303;SDS011;59091;47.446;19.148;2023-08-06T14:28:22;2.80;;;1.40;;
71303;SDS011;59091;47.446;19.148;2023-08-06T14:30:48;2.15;;;1.40;;
71303;SDS011;59091;47.446;19.148;2023-08-06T14:33:13;1.45;;;1.35;;
71303;SDS011;59091;47.446;19.148;2023-08-06T14:35:39;4.18;;;2.03;;
71303;SDS011;59091;47.446;19.148;2023-08-06T14:38:04;3.20;;;1.40;;
71303;SDS011;59091;47.446;19.148;2023-08-06T14:40:29;2.58;;;1.30;;
71303;SDS011;59091;47.446;19.148;2023-08-06T14:43:00;1.13;;;1.13;;
71303;SDS011;59091;47.446;19.148;2023-08-06T14:45:26;2.38;;;1.30;;
71303;SDS011;59091;47.446;19.148;2023-08-06T14:47:51;1.38;;;1.27;;
71303;SDS011;59091;47.446;19.148;2023-08-06T14:50:17;1.27;;;1.25;;
71303;SDS011;59091;47.446;19.148;2023-08-06T14:52:42;1.15;;;1.05;;